sensor_id;sensor_type;location;lat;lon;timestamp;temperature;humidity
76878;DHT22;65843;50.692;12.844;2024-01-06T00:00:05;13.60;58.40
76878;DHT22;65843;50.692;12.844;2024-01-06T00:01:09;13.50;58.40
76878;DHT22;65843;50.692;12.844;2024-01-06T00:02:10;13.50;59.10
76878;DHT22;65843;50.692;12.844;2024-01-06T00:03:11;13.50;58.70
76878;DHT22;65843;50.692;12.844;2024-01-06T00:04:12;13.50;58.50
76878;DHT22;65843;50.692;12.844;2024-01-06T00:05:13;13.50;58.90
76878;DHT22;65843;50.692;12.844;2024-01-06T00:06:14;13.50;58.60
76878;DHT22;65843;50.692;12.844;2024-01-06T00:07:15;13.50;59.00
76878;DHT22;65843;50.692;12.844;2024-01-06T00:08:16;13.50;58.60
76878;DHT22;65843;50.692;12.844;2024-01-06T00:09:16;13.50;58.70
76878;DHT22;65843;50.692;12.844;2024-01-06T00:10:17;13.50;58.90
76878;DHT22;65843;50.692;12.844;2024-01-06T00:11:18;13.50;58.90
76878;DHT22;65843;50.692;12.844;2024-01-06T00:12:19;13.50;58.90
76878;DHT22;65843;50.692;12.844;2024-01-06T00:13:20;13.50;58.90
76878;DHT22;65843;50.692;12.844;2024-01-06T00:14:21;13.40;58.90
76878;DHT22;65843;50.692;12.844;2024-01-06T00:15:22;13.40;58.70
76878;DHT22;65843;50.692;12.844;2024-01-06T00:16:23;13.50;58.90
76878;DHT22;65843;50.692;12.844;2024-01-06T00:17:23;13.40;58.80
76878;DHT22;65843;50.692;12.844;2024-01-06T00:18:24;13.40;58.90
76878;DHT22;65843;50.692;12.844;2024-01-06T00:19:25;13.30;58.80
76878;DHT22;65843;50.692;12.844;2024-01-06T00:20:26;13.30;58.60
76878;DHT22;65843;50.692;12.844;2024-01-06T00:21:27;13.30;58.80
76878;DHT22;65843;50.692;12.844;2024-01-06T00:22:28;13.30;58.70
76878;DHT22;65843;50.692;12.844;2024-01-06T00:23:28;13.30;59.20
76878;DHT22;65843;50.692;12.844;2024-01-06T00:24:29;13.30;59.00
76878;DHT22;65843;50.692;12.844;2024-01-06T00:25:30;13.30;59.50
76878;DHT22;65843;50.692;12.844;2024-01-06T00:26:31;13.30;58.70
76878;DHT22;65843;50.692;12.844;2024-01-06T00:27:32;13.30;59.30
76878;DHT22;65843;50.692;12.844;2024-01-06T00:28:33;13.30;58.90
76878;DHT22;65843;50.692;12.844;2024-01-06T00:29:33;13.30;58.80
76878;DHT22;65843;50.692;12.844;2024-01-06T00:30:34;13.30;58.70
76878;DHT22;65843;50.692;12.844;2024-01-06T00:31:35;13.30;59.00
76878;DHT22;65843;50.692;12.844;2024-01-06T00:32:36;13.30;59.00
76878;DHT22;65843;50.692;12.844;2024-01-06T00:33:37;13.30;59.10
76878;DHT22;65843;50.692;12.844;2024-01-06T00:34:38;13.30;59.00
76878;DHT22;65843;50.692;12.844;2024-01-06T00:35:39;13.30;58.90
76878;DHT22;65843;50.692;12.844;2024-01-06T00:36:40;13.20;58.90
76878;DHT22;65843;50.692;12.844;2024-01-06T00:37:41;13.20;58.80
76878;DHT22;65843;50.692;12.844;2024-01-06T00:38:41;13.20;59.10
76878;DHT22;65843;50.692;12.844;2024-01-06T00:39:42;13.20;58.80
76878;DHT22;65843;50.692;12.844;2024-01-06T00:40:43;13.10;58.70
76878;DHT22;65843;50.692;12.844;2024-01-06T00:41:44;13.10;59.20
76878;DHT22;65843;50.692;12.844;2024-01-06T00:42:45;13.20;59.10
76878;DHT22;65843;50.692;12.844;2024-01-06T00:43:46;13.20;59.40
76878;DHT22;65843;50.692;12.844;2024-01-06T00:44:47;13.10;59.20
76878;DHT22;65843;50.692;12.844;2024-01-06T00:45:47;13.20;59.50
76878;DHT22;65843;50.692;12.844;2024-01-06T00:46:48;13.20;58.90
76878;DHT22;65843;50.692;12.844;2024-01-06T00:47:49;13.20;59.10
76878;DHT22;65843;50.692;12.844;2024-01-06T00:48:50;13.20;59.00
76878;DHT22;65843;50.692;12.844;2024-01-06T00:49:51;13.20;58.90
76878;DHT22;65843;50.692;12.844;2024-01-06T00:50:52;13.10;59.00
76878;DHT22;65843;50.692;12.844;2024-01-06T00:51:53;13.10;59.30
76878;DHT22;65843;50.692;12.844;2024-01-06T00:52:54;13.10;59.10
76878;DHT22;65843;50.692;12.844;2024-01-06T00:53:54;13.10;58.90
76878;DHT22;65843;50.692;12.844;2024-01-06T00:54:55;13.10;59.60
76878;DHT22;65843;50.692;12.844;2024-01-06T00:55:56;13.10;59.20
76878;DHT22;65843;50.692;12.844;2024-01-06T00:56:57;13.10;59.50
76878;DHT22;65843;50.692;12.844;2024-01-06T00:57:58;13.10;59.10
76878;DHT22;65843;50.692;12.844;2024-01-06T00:58:59;13.10;59.30
76878;DHT22;65843;50.692;12.844;2024-01-06T01:00:00;13.10;59.50
76878;DHT22;65843;50.692;12.844;2024-01-06T01:01:00;13.10;58.80
76878;DHT22;65843;50.692;12.844;2024-01-06T01:02:01;13.10;58.90
76878;DHT22;65843;50.692;12.844;2024-01-06T01:03:02;13.10;58.70
76878;DHT22;65843;50.692;12.844;2024-01-06T01:04:03;13.10;59.00
76878;DHT22;65843;50.692;12.844;2024-01-06T01:05:04;13.10;59.00
76878;DHT22;65843;50.692;12.844;2024-01-06T01:06:05;13.10;58.90
76878;DHT22;65843;50.692;12.844;2024-01-06T01:07:06;13.10;58.80
76878;DHT22;65843;50.692;12.844;2024-01-06T01:08:07;13.10;59.00
76878;DHT22;65843;50.692;12.844;2024-01-06T01:09:08;13.10;58.80
76878;DHT22;65843;50.692;12.844;2024-01-06T01:10:11;13.10;58.90
76878;DHT22;65843;50.692;12.844;2024-01-06T01:11:11;13.10;58.40
76878;DHT22;65843;50.692;12.844;2024-01-06T01:12:12;13.10;59.00
76878;DHT22;65843;50.692;12.844;2024-01-06T01:13:13;13.10;58.70
76878;DHT22;65843;50.692;12.844;2024-01-06T01:14:14;13.10;58.60
76878;DHT22;65843;50.692;12.844;2024-01-06T01:15:15;13.10;58.70
76878;DHT22;65843;50.692;12.844;2024-01-06T01:16:16;13.10;58.50
76878;DHT22;65843;50.692;12.844;2024-01-06T01:17:17;13.10;58.70
76878;DHT22;65843;50.692;12.844;2024-01-06T01:18:18;13.10;58.60
76878;DHT22;65843;50.692;12.844;2024-01-06T01:19:18;13.10;58.50
76878;DHT22;65843;50.692;12.844;2024-01-06T01:20:19;13.10;58.60
76878;DHT22;65843;50.692;12.844;2024-01-06T01:21:20;13.10;58.80
76878;DHT22;65843;50.692;12.844;2024-01-06T01:22:21;13.10;58.40
76878;DHT22;65843;50.692;12.844;2024-01-06T01:23:22;13.10;58.40
76878;DHT22;65843;50.692;12.844;2024-01-06T01:24:23;13.10;58.40
76878;DHT22;65843;50.692;12.844;2024-01-06T01:25:23;13.10;58.50
76878;DHT22;65843;50.692;12.844;2024-01-06T01:26:24;13.00;58.40
76878;DHT22;65843;50.692;12.844;2024-01-06T01:27:26;13.00;58.70
76878;DHT22;65843;50.692;12.844;2024-01-06T01:28:27;13.00;58.50
76878;DHT22;65843;50.692;12.844;2024-01-06T01:29:28;13.00;58.50
76878;DHT22;65843;50.692;12.844;2024-01-06T01:30:28;13.00;58.40
76878;DHT22;65843;50.692;12.844;2024-01-06T01:31:29;13.00;58.40
76878;DHT22;65843;50.692;12.844;2024-01-06T01:32:30;13.00;58.70
76878;DHT22;65843;50.692;12.844;2024-01-06T01:33:31;13.00;58.30
76878;DHT22;65843;50.692;12.844;2024-01-06T01:34:32;13.00;58.50
76878;DHT22;65843;50.692;12.844;2024-01-06T01:35:33;13.00;58.30
76878;DHT22;65843;50.692;12.844;2024-01-06T01:36:34;13.00;58.40
76878;DHT22;65843;50.692;12.844;2024-01-06T01:37:35;12.90;58.60
76878;DHT22;65843;50.692;12.844;2024-01-06T01:38:36;12.90;58.30
76878;DHT22;65843;50.692;12.844;2024-01-06T01:39:37;13.00;58.80
76878;DHT22;65843;50.692;12.844;2024-01-06T01:40:38;12.90;58.30
76878;DHT22;65843;50.692;12.844;2024-01-06T01:41:39;12.90;58.40
76878;DHT22;65843;50.692;12.844;2024-01-06T01:42:41;12.90;58.80
76878;DHT22;65843;50.692;12.844;2024-01-06T01:43:42;12.90;58.20
76878;DHT22;65843;50.692;12.844;2024-01-06T01:44:43;12.90;58.20
76878;DHT22;65843;50.692;12.844;2024-01-06T01:45:48;12.90;58.20
76878;DHT22;65843;50.692;12.844;2024-01-06T01:46:50;12.90;58.50
76878;DHT22;65843;50.692;12.844;2024-01-06T01:47:51;12.90;58.90
76878;DHT22;65843;50.692;12.844;2024-01-06T01:48:53;12.90;58.70
76878;DHT22;65843;50.692;12.844;2024-01-06T01:49:55;12.90;58.50
76878;DHT22;65843;50.692;12.844;2024-01-06T01:50:57;12.90;58.30
76878;DHT22;65843;50.692;12.844;2024-01-06T01:51:58;12.90;58.20
76878;DHT22;65843;50.692;12.844;2024-01-06T01:52:59;12.80;58.30
76878;DHT22;65843;50.692;12.844;2024-01-06T01:54:01;12.80;58.30
76878;DHT22;65843;50.692;12.844;2024-01-06T01:55:03;12.80;58.90
76878;DHT22;65843;50.692;12.844;2024-01-06T01:56:04;12.80;58.40
76878;DHT22;65843;50.692;12.844;2024-01-06T01:57:05;12.80;58.40
76878;DHT22;65843;50.692;12.844;2024-01-06T01:58:06;12.80;58.20
76878;DHT22;65843;50.692;12.844;2024-01-06T01:59:13;12.80;58.00
76878;DHT22;65843;50.692;12.844;2024-01-06T02:00:14;12.70;58.20
76878;DHT22;65843;50.692;12.844;2024-01-06T02:01:15;12.70;58.50
76878;DHT22;65843;50.692;12.844;2024-01-06T02:02:16;12.70;58.60
76878;DHT22;65843;50.692;12.844;2024-01-06T02:03:17;12.70;58.60
76878;DHT22;65843;50.692;12.844;2024-01-06T02:04:18;12.70;58.60
76878;DHT22;65843;50.692;12.844;2024-01-06T02:05:19;12.70;58.80
76878;DHT22;65843;50.692;12.844;2024-01-06T02:06:20;12.70;58.30
76878;DHT22;65843;50.692;12.844;2024-01-06T02:07:21;12.70;58.40
76878;DHT22;65843;50.692;12.844;2024-01-06T02:08:22;12.70;58.40
76878;DHT22;65843;50.692;12.844;2024-01-06T02:09:23;12.70;58.20
76878;DHT22;65843;50.692;12.844;2024-01-06T02:10:27;12.60;58.40
76878;DHT22;65843;50.692;12.844;2024-01-06T02:11:29;12.60;58.50
76878;DHT22;65843;50.692;12.844;2024-01-06T02:12:30;12.70;58.60
76878;DHT22;65843;50.692;12.844;2024-01-06T02:13:34;12.60;58.40
76878;DHT22;65843;50.692;12.844;2024-01-06T02:14:36;12.60;58.40
76878;DHT22;65843;50.692;12.844;2024-01-06T02:15:37;12.60;58.20
76878;DHT22;65843;50.692;12.844;2024-01-06T02:16:38;12.60;58.40
76878;DHT22;65843;50.692;12.844;2024-01-06T02:17:38;12.60;58.40
76878;DHT22;65843;50.692;12.844;2024-01-06T02:18:40;12.60;58.80
76878;DHT22;65843;50.692;12.844;2024-01-06T02:19:41;12.60;58.70
76878;DHT22;65843;50.692;12.844;2024-01-06T02:20:43;12.60;58.80
76878;DHT22;65843;50.692;12.844;2024-01-06T02:21:48;12.60;58.70
76878;DHT22;65843;50.692;12.844;2024-01-06T02:22:49;12.60;58.50
76878;DHT22;65843;50.692;12.844;2024-01-06T02:23:50;12.60;58.70
76878;DHT22;65843;50.692;12.844;2024-01-06T02:24:50;12.60;58.50
76878;DHT22;65843;50.692;12.844;2024-01-06T02:25:51;12.60;58.60
76878;DHT22;65843;50.692;12.844;2024-01-06T02:26:52;12.60;58.40
76878;DHT22;65843;50.692;12.844;2024-01-06T02:27:53;12.50;58.60
76878;DHT22;65843;50.692;12.844;2024-01-06T02:28:54;12.60;58.40
76878;DHT22;65843;50.692;12.844;2024-01-06T02:29:55;12.50;58.50
76878;DHT22;65843;50.692;12.844;2024-01-06T02:30:56;12.60;58.80
76878;DHT22;65843;50.692;12.844;2024-01-06T02:31:56;12.60;58.80
76878;DHT22;65843;50.692;12.844;2024-01-06T02:32:58;12.60;59.00
76878;DHT22;65843;50.692;12.844;2024-01-06T02:33:59;12.60;58.60
76878;DHT22;65843;50.692;12.844;2024-01-06T02:35:00;12.60;58.80
76878;DHT22;65843;50.692;12.844;2024-01-06T02:36:01;12.60;58.30
76878;DHT22;65843;50.692;12.844;2024-01-06T02:37:02;12.60;58.50
76878;DHT22;65843;50.692;12.844;2024-01-06T02:38:03;12.50;58.50
76878;DHT22;65843;50.692;12.844;2024-01-06T02:39:03;12.50;58.30
76878;DHT22;65843;50.692;12.844;2024-01-06T02:40:04;12.50;58.20
76878;DHT22;65843;50.692;12.844;2024-01-06T02:41:05;12.50;58.10
76878;DHT22;65843;50.692;12.844;2024-01-06T02:42:06;12.50;58.50
76878;DHT22;65843;50.692;12.844;2024-01-06T02:43:07;12.50;58.60
76878;DHT22;65843;50.692;12.844;2024-01-06T02:44:08;12.50;58.50
76878;DHT22;65843;50.692;12.844;2024-01-06T02:45:09;12.50;58.50
76878;DHT22;65843;50.692;12.844;2024-01-06T02:46:10;12.50;58.40
76878;DHT22;65843;50.692;12.844;2024-01-06T02:47:11;12.50;58.80
76878;DHT22;65843;50.692;12.844;2024-01-06T02:48:12;12.50;58.60
76878;DHT22;65843;50.692;12.844;2024-01-06T02:49:13;12.50;58.30
76878;DHT22;65843;50.692;12.844;2024-01-06T02:50:13;12.50;58.40
76878;DHT22;65843;50.692;12.844;2024-01-06T02:51:14;12.50;58.20
76878;DHT22;65843;50.692;12.844;2024-01-06T02:52:15;12.50;58.10
76878;DHT22;65843;50.692;12.844;2024-01-06T02:53:16;12.50;58.00
76878;DHT22;65843;50.692;12.844;2024-01-06T02:54:17;12.50;58.10
76878;DHT22;65843;50.692;12.844;2024-01-06T02:55:18;12.50;58.60
76878;DHT22;65843;50.692;12.844;2024-01-06T02:56:19;12.50;58.60
76878;DHT22;65843;50.692;12.844;2024-01-06T02:57:19;12.50;58.30
76878;DHT22;65843;50.692;12.844;2024-01-06T02:58:20;12.50;58.10
76878;DHT22;65843;50.692;12.844;2024-01-06T02:59:21;12.50;58.80
76878;DHT22;65843;50.692;12.844;2024-01-06T03:00:22;12.50;58.10
76878;DHT22;65843;50.692;12.844;2024-01-06T03:01:23;12.50;58.70
76878;DHT22;65843;50.692;12.844;2024-01-06T03:02:24;12.50;58.20
76878;DHT22;65843;50.692;12.844;2024-01-06T03:03:25;12.50;58.90
76878;DHT22;65843;50.692;12.844;2024-01-06T03:04:25;12.50;58.30
76878;DHT22;65843;50.692;12.844;2024-01-06T03:05:26;12.50;58.60
76878;DHT22;65843;50.692;12.844;2024-01-06T03:06:27;12.50;58.50
76878;DHT22;65843;50.692;12.844;2024-01-06T03:07:28;12.50;58.30
76878;DHT22;65843;50.692;12.844;2024-01-06T03:08:29;12.50;58.20
76878;DHT22;65843;50.692;12.844;2024-01-06T03:09:30;12.50;58.50
76878;DHT22;65843;50.692;12.844;2024-01-06T03:10:31;12.50;58.10
76878;DHT22;65843;50.692;12.844;2024-01-06T03:11:32;12.50;58.20
76878;DHT22;65843;50.692;12.844;2024-01-06T03:12:33;12.50;58.20
76878;DHT22;65843;50.692;12.844;2024-01-06T03:13:34;12.50;58.20
76878;DHT22;65843;50.692;12.844;2024-01-06T03:14:35;12.50;58.50
76878;DHT22;65843;50.692;12.844;2024-01-06T03:15:35;12.50;58.70
76878;DHT22;65843;50.692;12.844;2024-01-06T03:16:36;12.50;59.00
76878;DHT22;65843;50.692;12.844;2024-01-06T03:17:38;12.50;59.10
76878;DHT22;65843;50.692;12.844;2024-01-06T03:18:39;12.50;59.20
76878;DHT22;65843;50.692;12.844;2024-01-06T03:19:40;12.50;59.00
76878;DHT22;65843;50.692;12.844;2024-01-06T03:20:41;12.50;59.00
76878;DHT22;65843;50.692;12.844;2024-01-06T03:21:41;12.50;59.10
76878;DHT22;65843;50.692;12.844;2024-01-06T03:22:42;12.50;58.90
76878;DHT22;65843;50.692;12.844;2024-01-06T03:23:43;12.50;58.80
76878;DHT22;65843;50.692;12.844;2024-01-06T03:24:44;12.50;59.00
76878;DHT22;65843;50.692;12.844;2024-01-06T03:25:45;12.50;59.00
76878;DHT22;65843;50.692;12.844;2024-01-06T03:26:46;12.50;58.90
76878;DHT22;65843;50.692;12.844;2024-01-06T03:27:47;12.50;58.50
76878;DHT22;65843;50.692;12.844;2024-01-06T03:28:50;12.50;58.60
76878;DHT22;65843;50.692;12.844;2024-01-06T03:29:51;12.50;58.40
76878;DHT22;65843;50.692;12.844;2024-01-06T03:30:52;12.50;58.50
76878;DHT22;65843;50.692;12.844;2024-01-06T03:31:53;12.50;58.40
76878;DHT22;65843;50.692;12.844;2024-01-06T03:32:54;12.50;58.30
76878;DHT22;65843;50.692;12.844;2024-01-06T03:33:55;12.50;58.60
76878;DHT22;65843;50.692;12.844;2024-01-06T03:34:56;12.50;58.70
76878;DHT22;65843;50.692;12.844;2024-01-06T03:35:57;12.50;58.40
76878;DHT22;65843;50.692;12.844;2024-01-06T03:36:58;12.40;58.30
76878;DHT22;65843;50.692;12.844;2024-01-06T03:37:59;12.40;58.40
76878;DHT22;65843;50.692;12.844;2024-01-06T03:38:59;12.40;58.40
76878;DHT22;65843;50.692;12.844;2024-01-06T03:40:00;12.40;58.20
76878;DHT22;65843;50.692;12.844;2024-01-06T03:41:02;12.40;58.10
76878;DHT22;65843;50.692;12.844;2024-01-06T03:42:02;12.40;58.20
76878;DHT22;65843;50.692;12.844;2024-01-06T03:43:03;12.40;58.20
76878;DHT22;65843;50.692;12.844;2024-01-06T03:44:04;12.40;58.30
76878;DHT22;65843;50.692;12.844;2024-01-06T03:45:05;12.40;58.80
76878;DHT22;65843;50.692;12.844;2024-01-06T03:46:06;12.40;58.60
76878;DHT22;65843;50.692;12.844;2024-01-06T03:47:07;12.40;58.90
76878;DHT22;65843;50.692;12.844;2024-01-06T03:48:08;12.40;58.50
76878;DHT22;65843;50.692;12.844;2024-01-06T03:49:09;12.40;58.40
76878;DHT22;65843;50.692;12.844;2024-01-06T03:50:10;12.40;58.70
76878;DHT22;65843;50.692;12.844;2024-01-06T03:51:12;12.30;58.60
76878;DHT22;65843;50.692;12.844;2024-01-06T03:52:13;12.40;58.50
76878;DHT22;65843;50.692;12.844;2024-01-06T03:53:14;12.30;58.50
76878;DHT22;65843;50.692;12.844;2024-01-06T03:54:15;12.40;58.60
76878;DHT22;65843;50.692;12.844;2024-01-06T03:55:16;12.40;58.10
76878;DHT22;65843;50.692;12.844;2024-01-06T03:56:17;12.40;58.20
76878;DHT22;65843;50.692;12.844;2024-01-06T03:57:19;12.30;58.10
76878;DHT22;65843;50.692;12.844;2024-01-06T03:58:19;12.40;58.10
76878;DHT22;65843;50.692;12.844;2024-01-06T03:59:20;12.40;58.10
76878;DHT22;65843;50.692;12.844;2024-01-06T04:00:21;12.30;57.90
76878;DHT22;65843;50.692;12.844;2024-01-06T04:01:22;12.30;58.10
76878;DHT22;65843;50.692;12.844;2024-01-06T04:02:23;12.30;57.90
76878;DHT22;65843;50.692;12.844;2024-01-06T04:03:24;12.30;58.10
76878;DHT22;65843;50.692;12.844;2024-01-06T04:04:25;12.30;58.20
76878;DHT22;65843;50.692;12.844;2024-01-06T04:05:26;12.30;58.30
76878;DHT22;65843;50.692;12.844;2024-01-06T04:06:27;12.30;58.00
76878;DHT22;65843;50.692;12.844;2024-01-06T04:07:27;12.30;58.00
76878;DHT22;65843;50.692;12.844;2024-01-06T04:08:28;12.30;58.20
76878;DHT22;65843;50.692;12.844;2024-01-06T04:09:29;12.30;58.10
76878;DHT22;65843;50.692;12.844;2024-01-06T04:10:30;12.30;58.10
76878;DHT22;65843;50.692;12.844;2024-01-06T04:11:31;12.30;58.20
76878;DHT22;65843;50.692;12.844;2024-01-06T04:12:32;12.30;58.00
76878;DHT22;65843;50.692;12.844;2024-01-06T04:13:33;12.30;58.20
76878;DHT22;65843;50.692;12.844;2024-01-06T04:14:33;12.30;58.30
76878;DHT22;65843;50.692;12.844;2024-01-06T04:15:34;12.30;58.00
76878;DHT22;65843;50.692;12.844;2024-01-06T04:16:35;12.30;58.00
76878;DHT22;65843;50.692;12.844;2024-01-06T04:17:36;12.30;58.70
76878;DHT22;65843;50.692;12.844;2024-01-06T04:18:37;12.30;58.20
76878;DHT22;65843;50.692;12.844;2024-01-06T04:19:38;12.30;58.00
76878;DHT22;65843;50.692;12.844;2024-01-06T04:20:38;12.30;57.80
76878;DHT22;65843;50.692;12.844;2024-01-06T04:21:39;12.30;58.10
76878;DHT22;65843;50.692;12.844;2024-01-06T04:22:40;12.30;58.00
76878;DHT22;65843;50.692;12.844;2024-01-06T04:23:41;12.30;57.90
76878;DHT22;65843;50.692;12.844;2024-01-06T04:24:42;12.30;58.00
76878;DHT22;65843;50.692;12.844;2024-01-06T04:25:43;12.30;58.00
76878;DHT22;65843;50.692;12.844;2024-01-06T04:26:44;12.30;58.00
76878;DHT22;65843;50.692;12.844;2024-01-06T04:27:45;12.30;58.10
76878;DHT22;65843;50.692;12.844;2024-01-06T04:28:47;12.30;58.40
76878;DHT22;65843;50.692;12.844;2024-01-06T04:29:48;12.30;58.60
76878;DHT22;65843;50.692;12.844;2024-01-06T04:30:49;12.30;58.50
76878;DHT22;65843;50.692;12.844;2024-01-06T04:31:49;12.30;58.40
76878;DHT22;65843;50.692;12.844;2024-01-06T04:32:50;12.30;58.30
76878;DHT22;65843;50.692;12.844;2024-01-06T04:33:51;12.30;58.50
76878;DHT22;65843;50.692;12.844;2024-01-06T04:34:52;12.30;58.50
76878;DHT22;65843;50.692;12.844;2024-01-06T04:35:53;12.30;58.50
76878;DHT22;65843;50.692;12.844;2024-01-06T04:36:54;12.30;58.30
76878;DHT22;65843;50.692;12.844;2024-01-06T04:37:55;12.30;58.20
76878;DHT22;65843;50.692;12.844;2024-01-06T04:38:56;12.30;58.50
76878;DHT22;65843;50.692;12.844;2024-01-06T04:39:57;12.30;58.50
76878;DHT22;65843;50.692;12.844;2024-01-06T04:40:58;12.30;58.70
76878;DHT22;65843;50.692;12.844;2024-01-06T04:41:59;12.30;58.40
76878;DHT22;65843;50.692;12.844;2024-01-06T04:42:59;12.30;58.40
76878;DHT22;65843;50.692;12.844;2024-01-06T04:44:01;12.30;58.50
76878;DHT22;65843;50.692;12.844;2024-01-06T04:45:01;12.30;58.40
76878;DHT22;65843;50.692;12.844;2024-01-06T04:46:03;12.40;58.50
76878;DHT22;65843;50.692;12.844;2024-01-06T04:47:04;12.30;58.40
76878;DHT22;65843;50.692;12.844;2024-01-06T04:48:05;12.30;58.70
76878;DHT22;65843;50.692;12.844;2024-01-06T04:49:06;12.30;59.00
76878;DHT22;65843;50.692;12.844;2024-01-06T04:50:07;12.30;59.10
76878;DHT22;65843;50.692;12.844;2024-01-06T04:51:08;12.30;59.20
76878;DHT22;65843;50.692;12.844;2024-01-06T04:52:10;12.40;59.10
76878;DHT22;65843;50.692;12.844;2024-01-06T04:53:11;12.40;59.00
76878;DHT22;65843;50.692;12.844;2024-01-06T04:54:12;12.40;59.00
76878;DHT22;65843;50.692;12.844;2024-01-06T04:55:13;12.50;58.70
76878;DHT22;65843;50.692;12.844;2024-01-06T04:56:14;12.50;58.60
76878;DHT22;65843;50.692;12.844;2024-01-06T04:57:15;12.50;58.50
76878;DHT22;65843;50.692;12.844;2024-01-06T04:58:16;12.50;58.70
76878;DHT22;65843;50.692;12.844;2024-01-06T04:59:17;12.50;58.40
76878;DHT22;65843;50.692;12.844;2024-01-06T05:00:18;12.50;58.60
76878;DHT22;65843;50.692;12.844;2024-01-06T05:01:19;12.50;58.90
76878;DHT22;65843;50.692;12.844;2024-01-06T05:02:20;12.50;58.90
76878;DHT22;65843;50.692;12.844;2024-01-06T05:03:21;12.50;59.00
76878;DHT22;65843;50.692;12.844;2024-01-06T05:04:22;12.50;58.40
76878;DHT22;65843;50.692;12.844;2024-01-06T05:05:23;12.50;58.50
76878;DHT22;65843;50.692;12.844;2024-01-06T05:06:23;12.50;58.40
76878;DHT22;65843;50.692;12.844;2024-01-06T05:07:24;12.50;58.30
76878;DHT22;65843;50.692;12.844;2024-01-06T05:08:25;12.50;58.20
76878;DHT22;65843;50.692;12.844;2024-01-06T05:09:26;12.50;58.30
76878;DHT22;65843;50.692;12.844;2024-01-06T05:10:27;12.50;58.50
76878;DHT22;65843;50.692;12.844;2024-01-06T05:11:28;12.50;58.50
76878;DHT22;65843;50.692;12.844;2024-01-06T05:12:29;12.40;58.10
76878;DHT22;65843;50.692;12.844;2024-01-06T05:13:29;12.50;58.30
76878;DHT22;65843;50.692;12.844;2024-01-06T05:14:30;12.50;58.00
76878;DHT22;65843;50.692;12.844;2024-01-06T05:15:31;12.40;58.00
76878;DHT22;65843;50.692;12.844;2024-01-06T05:16:32;12.40;57.90
76878;DHT22;65843;50.692;12.844;2024-01-06T05:17:33;12.40;57.90
76878;DHT22;65843;50.692;12.844;2024-01-06T05:18:34;12.40;58.00
76878;DHT22;65843;50.692;12.844;2024-01-06T05:19:35;12.40;57.90
76878;DHT22;65843;50.692;12.844;2024-01-06T05:20:36;12.30;57.90
76878;DHT22;65843;50.692;12.844;2024-01-06T05:21:37;12.30;57.90
76878;DHT22;65843;50.692;12.844;2024-01-06T05:22:38;12.30;57.90
76878;DHT22;65843;50.692;12.844;2024-01-06T05:23:38;12.30;57.80
76878;DHT22;65843;50.692;12.844;2024-01-06T05:24:40;12.30;58.10
76878;DHT22;65843;50.692;12.844;2024-01-06T05:25:41;12.30;58.10
76878;DHT22;65843;50.692;12.844;2024-01-06T05:26:42;12.30;58.20
76878;DHT22;65843;50.692;12.844;2024-01-06T05:27:43;12.30;58.10
76878;DHT22;65843;50.692;12.844;2024-01-06T05:28:44;12.30;58.00
76878;DHT22;65843;50.692;12.844;2024-01-06T05:29:44;12.30;57.90
76878;DHT22;65843;50.692;12.844;2024-01-06T05:30:45;12.30;57.80
76878;DHT22;65843;50.692;12.844;2024-01-06T05:31:46;12.30;57.90
76878;DHT22;65843;50.692;12.844;2024-01-06T05:32:49;12.30;57.50
76878;DHT22;65843;50.692;12.844;2024-01-06T05:33:50;12.30;57.80
76878;DHT22;65843;50.692;12.844;2024-01-06T05:34:51;12.30;57.80
76878;DHT22;65843;50.692;12.844;2024-01-06T05:35:52;12.30;58.00
76878;DHT22;65843;50.692;12.844;2024-01-06T05:36:53;12.30;57.70
76878;DHT22;65843;50.692;12.844;2024-01-06T05:37:54;12.30;58.30
76878;DHT22;65843;50.692;12.844;2024-01-06T05:38:55;12.30;58.00
76878;DHT22;65843;50.692;12.844;2024-01-06T05:39:55;12.30;58.30
76878;DHT22;65843;50.692;12.844;2024-01-06T05:40:58;12.30;58.10
76878;DHT22;65843;50.692;12.844;2024-01-06T05:41:59;12.30;57.90
76878;DHT22;65843;50.692;12.844;2024-01-06T05:43:00;12.30;57.90
76878;DHT22;65843;50.692;12.844;2024-01-06T05:44:01;12.20;57.80
76878;DHT22;65843;50.692;12.844;2024-01-06T05:45:02;12.20;57.80
76878;DHT22;65843;50.692;12.844;2024-01-06T05:46:03;12.30;58.00
76878;DHT22;65843;50.692;12.844;2024-01-06T05:47:04;12.30;57.90
76878;DHT22;65843;50.692;12.844;2024-01-06T05:48:08;12.20;57.80
76878;DHT22;65843;50.692;12.844;2024-01-06T05:49:09;12.20;57.90
76878;DHT22;65843;50.692;12.844;2024-01-06T05:50:11;12.20;57.80
76878;DHT22;65843;50.692;12.844;2024-01-06T05:51:11;12.20;57.80
76878;DHT22;65843;50.692;12.844;2024-01-06T05:52:12;12.20;57.90
76878;DHT22;65843;50.692;12.844;2024-01-06T05:53:13;12.20;57.70
76878;DHT22;65843;50.692;12.844;2024-01-06T05:54:15;12.20;57.80
76878;DHT22;65843;50.692;12.844;2024-01-06T05:55:15;12.20;57.50
76878;DHT22;65843;50.692;12.844;2024-01-06T05:56:23;12.30;57.30
76878;DHT22;65843;50.692;12.844;2024-01-06T05:57:25;12.20;57.50
76878;DHT22;65843;50.692;12.844;2024-01-06T05:58:26;12.20;57.60
76878;DHT22;65843;50.692;12.844;2024-01-06T05:59:27;12.20;57.80
76878;DHT22;65843;50.692;12.844;2024-01-06T06:00:28;12.20;57.50
76878;DHT22;65843;50.692;12.844;2024-01-06T06:01:32;12.20;57.50
76878;DHT22;65843;50.692;12.844;2024-01-06T06:02:32;12.20;57.60
76878;DHT22;65843;50.692;12.844;2024-01-06T06:03:33;12.20;57.70
76878;DHT22;65843;50.692;12.844;2024-01-06T06:04:34;12.20;57.90
76878;DHT22;65843;50.692;12.844;2024-01-06T06:05:36;12.20;57.60
76878;DHT22;65843;50.692;12.844;2024-01-06T06:06:37;12.20;57.50
76878;DHT22;65843;50.692;12.844;2024-01-06T06:07:38;12.20;57.70
76878;DHT22;65843;50.692;12.844;2024-01-06T06:08:40;12.10;57.70
76878;DHT22;65843;50.692;12.844;2024-01-06T06:09:41;12.20;57.80
76878;DHT22;65843;50.692;12.844;2024-01-06T06:10:42;12.20;57.40
76878;DHT22;65843;50.692;12.844;2024-01-06T06:12:00;12.10;57.60
76878;DHT22;65843;50.692;12.844;2024-01-06T06:13:01;12.10;58.00
76878;DHT22;65843;50.692;12.844;2024-01-06T06:14:02;12.10;57.70
76878;DHT22;65843;50.692;12.844;2024-01-06T06:15:04;12.10;57.70
76878;DHT22;65843;50.692;12.844;2024-01-06T06:16:05;12.10;57.70
76878;DHT22;65843;50.692;12.844;2024-01-06T06:17:06;12.10;57.80
76878;DHT22;65843;50.692;12.844;2024-01-06T06:18:07;12.10;58.00
76878;DHT22;65843;50.692;12.844;2024-01-06T06:19:08;12.20;57.50